createdAt,value
2018-12-25T00:01:15.810Z,10.02
2018-12-25T00:03:41.881Z,10.05
2018-12-25T00:06:10.073Z,9.88
2018-12-25T00:08:36.450Z,9.92
2018-12-25T00:11:02.731Z,10.25
2018-12-25T00:13:28.804Z,10.35
2018-12-25T00:15:54.929Z,10.44
2018-12-25T00:18:22.193Z,10.24
2018-12-25T00:20:48.677Z,10.38
2018-12-25T00:23:14.706Z,10.42
2018-12-25T00:25:41.163Z,10.45
2018-12-25T00:28:07.689Z,10.25
2018-12-25T00:30:33.733Z,10.01
2018-12-25T00:33:00.155Z,10.00
2018-12-25T00:35:26.222Z,10.03
2018-12-25T00:37:52.617Z,10.14
2018-12-25T00:40:18.970Z,10.45
2018-12-25T00:42:45.108Z,10.55
2018-12-25T00:45:11.186Z,10.26
2018-12-25T00:47:37.529Z,10.20
2018-12-25T00:50:03.545Z,10.27
2018-12-25T00:52:29.578Z,10.10
2018-12-25T00:54:55.593Z,10.22
2018-12-25T00:57:21.918Z,10.25
2018-12-25T00:59:47.982Z,10.03
2018-12-25T01:02:14.026Z,10.38
2018-12-25T01:04:40.154Z,10.36
2018-12-25T01:07:06.254Z,10.14
2018-12-25T01:09:32.657Z,10.32
2018-12-25T01:11:58.712Z,10.25
2018-12-25T01:14:24.802Z,10.21
2018-12-25T01:16:51.163Z,10.22
2018-12-25T01:19:23.264Z,10.33
2018-12-25T01:21:45.339Z,10.27
2018-12-25T01:24:11.374Z,10.48
2018-12-25T01:26:37.859Z,10.39
2018-12-25T01:29:04.193Z,10.37
2018-12-25T01:31:30.503Z,10.19
2018-12-25T01:33:56.528Z,10.35
2018-12-25T01:36:22.645Z,10.32
2018-12-25T01:38:48.730Z,10.28
2018-12-25T01:41:14.882Z,10.24
2018-12-25T01:43:41.292Z,10.38
2018-12-25T01:46:07.311Z,10.11
2018-12-25T01:48:33.596Z,10.02
2018-12-25T01:50:59.883Z,10.18
2018-12-25T01:53:25.986Z,10.06
2018-12-25T01:55:52.377Z,10.03
2018-12-25T01:58:18.732Z,10.37
2018-12-25T02:00:44.839Z,10.16
2018-12-25T02:03:11.062Z,10.19
2018-12-25T02:05:37.380Z,9.98
2018-12-25T02:08:03.729Z,9.99
2018-12-25T02:10:29.748Z,10.21
2018-12-25T02:12:55.758Z,10.18
2018-12-25T02:15:21.769Z,10.25
2018-12-25T02:17:47.885Z,10.29
2018-12-25T02:20:13.957Z,10.11
2018-12-25T02:22:39.990Z,10.45
2018-12-25T02:25:06.374Z,10.22
2018-12-25T02:27:32.497Z,10.37
2018-12-25T02:29:58.533Z,10.56
2018-12-25T02:32:24.882Z,10.28
2018-12-25T02:34:50.973Z,10.01
2018-12-25T02:37:17.075Z,10.22
2018-12-25T02:39:43.155Z,10.14
2018-12-25T02:42:09.674Z,10.40
2018-12-25T02:44:36.019Z,10.23
2018-12-25T02:47:02.457Z,10.09
2018-12-25T02:49:28.808Z,10.16
2018-12-25T02:51:55.257Z,10.28
2018-12-25T02:54:21.344Z,10.32
2018-12-25T02:56:47.457Z,10.25
2018-12-25T02:59:13.553Z,10.22
2018-12-25T03:01:39.643Z,10.00
2018-12-25T03:04:05.663Z,9.96
2018-12-25T03:06:31.687Z,9.98
2018-12-25T03:08:57.765Z,10.03
2018-12-25T03:11:23.800Z,10.11
2018-12-25T03:13:50.175Z,10.25
2018-12-25T03:16:16.247Z,10.14
2018-12-25T03:18:42.288Z,10.10
2018-12-25T03:21:08.646Z,10.20
2018-12-25T03:23:34.725Z,10.36
2018-12-25T03:26:00.805Z,10.28
2018-12-25T03:28:26.915Z,10.26
2018-12-25T03:30:52.996Z,10.21
2018-12-25T03:33:19.104Z,10.46
2018-12-25T03:35:45.199Z,10.59
2018-12-25T03:38:11.590Z,10.42
2018-12-25T03:40:37.692Z,10.38
2018-12-25T03:43:03.829Z,10.34
2018-12-25T03:45:29.906Z,10.33
2018-12-25T03:47:55.954Z,10.48
2018-12-25T03:50:22.031Z,10.13
2018-12-25T03:52:48.055Z,10.45
2018-12-25T03:55:14.078Z,10.21
2018-12-25T03:57:40.406Z,10.43
2018-12-25T04:00:06.731Z,10.43
2018-12-25T04:02:32.833Z,10.67
2018-12-25T04:04:58.887Z,10.38
2018-12-25T04:07:25.311Z,10.37
2018-12-25T04:09:51.758Z,10.18
2018-12-25T04:12:17.848Z,10.31
2018-12-25T04:14:43.933Z,10.35
2018-12-25T04:17:10.260Z,10.51
2018-12-25T04:19:36.310Z,10.58
2018-12-25T04:22:02.338Z,10.58
2018-12-25T04:24:28.859Z,10.84
2018-12-25T04:26:54.934Z,10.47
2018-12-25T04:29:21.389Z,10.23
2018-12-25T04:31:47.501Z,10.23
2018-12-25T04:34:13.606Z,10.18
2018-12-25T04:36:39.693Z,10.24
2018-12-25T04:39:05.713Z,10.62
2018-12-25T04:41:31.799Z,10.58
2018-12-25T04:43:57.926Z,10.55
2018-12-25T04:46:23.953Z,10.59
2018-12-25T04:48:50.053Z,10.63
2018-12-25T04:51:16.406Z,10.97
2018-12-25T04:53:42.849Z,10.63
2018-12-25T04:56:08.845Z,10.40
2018-12-25T04:58:35.205Z,10.66
2018-12-25T05:01:01.225Z,10.49
2018-12-25T05:03:27.238Z,10.27
2018-12-25T05:05:53.260Z,10.13
2018-12-25T05:08:19.261Z,10.39
2018-12-25T05:10:45.279Z,10.75
2018-12-25T05:13:11.419Z,10.72
2018-12-25T05:15:37.482Z,10.72
2018-12-25T05:18:03.806Z,10.59
2018-12-25T05:20:37.689Z,10.27
2018-12-25T05:22:58.005Z,10.19
2018-12-25T05:25:24.046Z,10.62
2018-12-25T05:27:50.482Z,10.80
2018-12-25T05:30:16.609Z,10.80
2018-12-25T05:32:42.685Z,10.60
2018-12-25T05:35:08.729Z,10.97
2018-12-25T05:37:34.814Z,10.80
2018-12-25T05:40:00.809Z,10.63
2018-12-25T05:42:27.141Z,10.64
2018-12-25T05:44:53.856Z,10.75
2018-12-25T05:47:19.872Z,10.97
2018-12-25T05:49:45.992Z,10.86
2018-12-25T05:52:12.085Z,10.83
2018-12-25T05:54:38.431Z,10.96
2018-12-25T05:57:04.439Z,10.70
2018-12-25T05:59:30.738Z,10.59
2018-12-25T06:01:56.823Z,10.56
2018-12-25T06:04:23.286Z,10.70
2018-12-25T06:06:49.708Z,10.67
2018-12-25T06:09:16.049Z,10.46
2018-12-25T06:11:42.082Z,10.44
2018-12-25T06:14:08.493Z,10.40
2018-12-25T06:16:34.555Z,10.39
2018-12-25T06:19:00.654Z,10.40
2018-12-25T06:21:26.993Z,10.28
2018-12-25T06:23:53.089Z,10.37
2018-12-25T06:26:19.146Z,10.50
2018-12-25T06:28:45.239Z,10.56
2018-12-25T06:31:11.595Z,10.99
2018-12-25T06:33:38.037Z,10.54
2018-12-25T06:36:04.052Z,10.35
2018-12-25T06:38:30.145Z,10.52
2018-12-25T06:40:56.528Z,11.01
2018-12-25T06:43:22.929Z,10.84
2018-12-25T06:45:48.977Z,11.09
2018-12-25T06:48:15.394Z,11.05
2018-12-25T06:50:41.718Z,10.75
2018-12-25T06:53:08.036Z,10.70
2018-12-25T06:55:34.338Z,10.76
2018-12-25T06:58:00.333Z,10.78
2018-12-25T07:00:26.500Z,10.55
2018-12-25T07:02:53.950Z,10.59
2018-12-25T07:05:20.093Z,10.75
2018-12-25T07:07:46.198Z,11.11
2018-12-25T07:10:12.330Z,11.10
2018-12-25T07:12:38.352Z,10.84
2018-12-25T07:15:04.463Z,10.62
2018-12-25T07:17:30.554Z,10.56
2018-12-25T07:19:56.650Z,10.52
2018-12-25T07:22:22.671Z,10.47
2018-12-25T07:24:48.946Z,10.51
2018-12-25T07:27:15.053Z,10.35
2018-12-25T07:29:41.185Z,10.52
2018-12-25T07:32:07.521Z,10.63
2018-12-25T07:34:33.853Z,10.54
2018-12-25T07:36:59.977Z,10.74
2018-12-25T07:39:26.099Z,10.61
2018-12-25T07:41:55.239Z,10.74
2018-12-25T07:44:21.310Z,10.57
2018-12-25T07:46:47.362Z,10.70
2018-12-25T07:49:13.616Z,10.88
2018-12-25T07:51:39.716Z,11.24
2018-12-25T07:54:05.821Z,11.19
2018-12-25T07:56:32.174Z,11.26
2018-12-25T07:58:58.265Z,10.91
2018-12-25T08:01:24.645Z,10.88
2018-12-25T08:03:50.889Z,11.12
2018-12-25T08:06:17.329Z,11.30
2018-12-25T08:08:43.430Z,11.34
2018-12-25T08:11:11.488Z,11.20
2018-12-25T08:13:37.306Z,11.23
2018-12-25T08:16:03.694Z,11.46
2018-12-25T08:18:29.987Z,11.40
2018-12-25T08:20:56.366Z,11.07
2018-12-25T08:23:22.771Z,11.10
2018-12-25T08:25:49.164Z,11.33
2018-12-25T08:28:15.254Z,11.24
2018-12-25T08:30:41.273Z,11.19
2018-12-25T08:33:07.395Z,11.11
2018-12-25T08:35:33.814Z,10.85
2018-12-25T08:38:00.157Z,10.93
2018-12-25T08:40:26.425Z,11.21
2018-12-25T08:42:52.550Z,11.36
2018-12-25T08:45:18.591Z,11.26
2018-12-25T08:47:44.960Z,11.25
2018-12-25T08:50:11.327Z,11.04
2018-12-25T08:52:37.462Z,11.42
2018-12-25T08:55:03.592Z,11.53
2018-12-25T08:57:29.757Z,11.40
2018-12-25T08:59:55.828Z,11.40
2018-12-25T09:02:21.869Z,11.28
2018-12-25T09:04:47.961Z,10.99
2018-12-25T09:07:14.051Z,10.99
2018-12-25T09:09:40.070Z,11.11
2018-12-25T09:12:06.406Z,11.02
2018-12-25T09:14:32.548Z,10.97
2018-12-25T09:16:58.932Z,11.14
2018-12-25T09:19:24.990Z,11.22
2018-12-25T09:21:51.013Z,11.32
2018-12-25T09:24:17.165Z,11.07
2018-12-25T09:26:43.244Z,11.16
2018-12-25T09:29:09.374Z,11.09
2018-12-25T09:31:35.521Z,11.16
2018-12-25T09:34:01.859Z,10.89
2018-12-25T09:36:28.079Z,10.85
2018-12-25T09:38:54.127Z,10.68
2018-12-25T09:41:20.213Z,10.93
2018-12-25T09:43:46.241Z,10.83
2018-12-25T09:46:12.722Z,11.30
2018-12-25T09:48:39.026Z,11.53
2018-12-25T09:51:05.332Z,10.94
2018-12-25T09:53:31.619Z,11.06
2018-12-25T09:55:57.667Z,11.09
2018-12-25T09:58:23.754Z,11.10
2018-12-25T10:00:49.771Z,11.14
2018-12-25T10:03:15.885Z,10.79
2018-12-25T10:05:42.232Z,11.02
2018-12-25T10:08:08.278Z,10.94
2018-12-25T10:10:34.369Z,10.86
2018-12-25T10:13:00.757Z,10.82
2018-12-25T10:15:27.130Z,10.75
2018-12-25T10:17:53.225Z,11.07
2018-12-25T10:20:19.327Z,11.20
2018-12-25T10:22:45.440Z,11.08
2018-12-25T10:25:11.778Z,11.19
2018-12-25T10:27:38.099Z,11.16
2018-12-25T10:30:04.464Z,11.29
2018-12-25T10:32:30.541Z,11.30
2018-12-25T10:34:56.553Z,11.34
2018-12-25T10:37:22.899Z,11.40
2018-12-25T10:39:48.995Z,11.44
2018-12-25T10:42:15.011Z,11.07
2018-12-25T10:44:41.109Z,11.21
2018-12-25T10:47:07.122Z,11.42
2018-12-25T10:49:33.307Z,11.31
2018-12-25T10:52:01.134Z,11.25
2018-12-25T10:54:27.259Z,11.38
2018-12-25T10:56:53.309Z,11.19
2018-12-25T10:59:19.752Z,11.39
2018-12-25T11:01:45.827Z,11.33
2018-12-25T11:04:11.852Z,11.61
2018-12-25T11:06:39.504Z,11.70
2018-12-25T11:09:06.085Z,11.37
2018-12-25T11:11:32.177Z,11.57
2018-12-25T11:13:58.300Z,11.51
2018-12-25T11:16:24.824Z,11.39
2018-12-25T11:18:51.194Z,11.36
2018-12-25T11:21:18.511Z,11.40
2018-12-25T11:23:44.846Z,11.60
2018-12-25T11:26:10.965Z,11.38
2018-12-25T11:28:37.373Z,11.51
2018-12-25T11:31:03.752Z,11.83
2018-12-25T11:33:29.901Z,11.70
2018-12-25T11:35:55.998Z,11.62
2018-12-25T11:38:22.380Z,11.65
2018-12-25T11:40:48.518Z,11.65
2018-12-25T11:43:14.593Z,11.69
2018-12-25T11:45:40.960Z,11.98
2018-12-25T11:48:06.981Z,11.67
2018-12-25T11:50:33.366Z,11.69
2018-12-25T11:52:59.951Z,11.61
2018-12-25T11:55:26.124Z,11.92
2018-12-25T11:57:53.565Z,11.81
2018-12-25T12:00:19.653Z,11.66
2018-12-25T12:02:45.979Z,11.56
2018-12-25T12:05:12.389Z,11.43
2018-12-25T12:07:38.963Z,11.19
2018-12-25T12:10:05.387Z,11.32
2018-12-25T12:12:31.770Z,11.55
2018-12-25T12:14:58.581Z,11.64
2018-12-25T12:17:25.142Z,11.65
2018-12-25T12:19:51.184Z,11.78
2018-12-25T12:22:17.708Z,12.08
2018-12-25T12:24:43.828Z,11.92
2018-12-25T12:27:10.138Z,11.96
2018-12-25T12:29:36.760Z,11.58
2018-12-25T12:32:02.854Z,11.74
2018-12-25T12:34:28.893Z,11.43
2018-12-25T12:36:54.919Z,11.67
2018-12-25T12:39:20.965Z,11.76
2018-12-25T12:41:46.988Z,11.74
2018-12-25T12:44:13.096Z,11.73
2018-12-25T12:46:39.177Z,11.71
2018-12-25T12:49:05.202Z,11.85
2018-12-25T12:51:31.277Z,11.72
2018-12-25T12:53:57.412Z,11.44
2018-12-25T12:56:23.792Z,11.58
2018-12-25T12:58:52.210Z,11.71
2018-12-25T13:01:17.908Z,11.41
2018-12-25T13:03:43.981Z,11.53
2018-12-25T13:06:10.607Z,11.51
2018-12-25T13:08:39.810Z,11.72
2018-12-25T13:11:08.318Z,11.78
2018-12-25T13:13:34.431Z,11.67
2018-12-25T13:16:00.628Z,11.92
2018-12-25T13:18:27.010Z,12.04
2018-12-25T13:20:55.270Z,12.08
2018-12-25T13:23:21.397Z,11.99
2018-12-25T13:25:49.544Z,11.76
2018-12-25T13:28:15.620Z,11.77
2018-12-25T13:30:42.041Z,12.02
2018-12-25T13:33:08.522Z,11.93
2018-12-25T13:35:34.642Z,11.95
2018-12-25T13:38:00.723Z,11.90
2018-12-25T13:40:26.834Z,12.01
2018-12-25T13:42:53.273Z,11.85
2018-12-25T13:45:19.414Z,12.08
2018-12-25T13:47:45.561Z,11.87
2018-12-25T13:50:14.572Z,11.87
2018-12-25T13:52:41.155Z,11.71
2018-12-25T13:55:07.705Z,11.61
2018-12-25T13:57:33.768Z,11.67
2018-12-25T14:00:00.666Z,11.57
2018-12-25T14:02:27.068Z,11.76
2018-12-25T14:04:56.637Z,11.71
2018-12-25T14:07:23.241Z,11.68
2018-12-25T14:09:49.646Z,11.70
2018-12-25T14:12:15.988Z,11.78
2018-12-25T14:14:44.891Z,11.83
2018-12-25T14:17:11.081Z,11.71
2018-12-25T14:19:37.250Z,12.19
2018-12-25T14:22:03.714Z,12.31
2018-12-25T14:24:29.742Z,11.79
2018-12-25T14:26:55.837Z,11.75
2018-12-25T14:29:22.365Z,11.64
2018-12-25T14:31:48.503Z,11.86
2018-12-25T14:34:16.656Z,11.83
2018-12-25T14:36:43.046Z,11.96
2018-12-25T14:39:09.142Z,11.72
2018-12-25T14:41:35.257Z,11.70
2018-12-25T14:44:05.365Z,11.95
2018-12-25T14:46:29.131Z,12.05
2018-12-25T14:48:57.004Z,11.81
2018-12-25T14:51:23.520Z,12.11
2018-12-25T14:53:49.903Z,11.82
2018-12-25T14:56:16.505Z,11.78
2018-12-25T14:58:42.561Z,11.63
2018-12-25T15:01:08.663Z,11.41
2018-12-25T15:03:34.911Z,11.52
2018-12-25T15:06:01.044Z,11.60
2018-12-25T15:08:27.151Z,11.67
2018-12-25T15:10:53.492Z,11.63
2018-12-25T15:13:19.618Z,12.04
2018-12-25T15:15:45.701Z,11.91
2018-12-25T15:18:11.945Z,12.03
2018-12-25T15:20:38.032Z,11.81
2018-12-25T15:23:04.319Z,11.96
2018-12-25T15:25:30.465Z,11.81
2018-12-25T15:27:56.532Z,11.61
2018-12-25T15:30:22.568Z,11.53
2018-12-25T15:32:48.708Z,11.51
2018-12-25T15:35:14.701Z,11.64
2018-12-25T15:37:40.781Z,11.68
2018-12-25T15:40:07.098Z,11.57
2018-12-25T15:42:34.291Z,11.76
2018-12-25T15:45:00.444Z,11.87
2018-12-25T15:47:26.783Z,11.87
2018-12-25T15:49:53.203Z,11.63
2018-12-25T15:52:19.331Z,11.46
2018-12-25T15:54:45.439Z,11.71
2018-12-25T15:57:12.419Z,11.83
2018-12-25T15:59:38.789Z,11.82
2018-12-25T16:02:08.408Z,11.73
2018-12-25T16:04:35.714Z,11.59
2018-12-25T16:07:02.398Z,11.54
2018-12-25T16:09:39.706Z,11.82
2018-12-25T16:12:06.627Z,11.74
2018-12-25T16:14:33.059Z,11.55
2018-12-25T16:16:59.362Z,11.49
2018-12-25T16:19:28.836Z,11.74
2018-12-25T16:21:55.033Z,11.79
2018-12-25T16:24:27.448Z,11.69
2018-12-25T16:26:48.886Z,11.61
2018-12-25T16:29:15.069Z,11.45
2018-12-25T16:31:43.656Z,11.74
2018-12-25T16:34:10.019Z,11.64
2018-12-25T16:36:36.077Z,11.93
2018-12-25T16:39:02.142Z,11.59
2018-12-25T16:41:28.226Z,11.79
2018-12-25T16:43:54.319Z,11.57
2018-12-25T16:46:20.384Z,11.51
2018-12-25T16:48:46.448Z,11.51
2018-12-25T16:51:12.574Z,11.72
2018-12-25T16:53:38.662Z,11.60
2018-12-25T16:56:05.191Z,11.65
2018-12-25T16:58:31.610Z,11.69
2018-12-25T17:00:57.703Z,11.67
2018-12-25T17:03:24.158Z,11.86
2018-12-25T17:05:50.184Z,11.68
2018-12-25T17:08:16.224Z,11.64
2018-12-25T17:10:42.504Z,11.48
2018-12-25T17:13:08.592Z,11.59
2018-12-25T17:15:35.068Z,11.65
2018-12-25T17:18:01.189Z,11.76
2018-12-25T17:20:28.562Z,11.62
2018-12-25T17:22:54.822Z,11.63
2018-12-25T17:25:20.908Z,11.61
2018-12-25T17:27:47.270Z,11.57
2018-12-25T17:30:13.681Z,11.71
2018-12-25T17:32:39.724Z,11.59
2018-12-25T17:35:05.805Z,11.66
2018-12-25T17:37:31.895Z,11.69
2018-12-25T17:39:58.244Z,11.40
2018-12-25T17:42:24.294Z,11.35
2018-12-25T17:44:50.821Z,11.38
2018-12-25T17:47:17.188Z,11.56
2018-12-25T17:49:43.295Z,11.56
2018-12-25T17:52:09.380Z,11.51
2018-12-25T17:54:35.509Z,11.68
2018-12-25T17:57:01.917Z,11.69
2018-12-25T17:59:28.276Z,11.68
2018-12-25T18:01:54.572Z,11.65
2018-12-25T18:04:21.439Z,11.56
2018-12-25T18:06:47.752Z,11.64
2018-12-25T18:09:13.844Z,11.51
2018-12-25T18:11:39.866Z,11.53
2018-12-25T18:14:06.018Z,11.45
2018-12-25T18:16:34.323Z,11.57
2018-12-25T18:18:59.938Z,11.97
2018-12-25T18:21:26.210Z,11.81
2018-12-25T18:23:55.177Z,11.44
2018-12-25T18:26:21.234Z,11.48
2018-12-25T18:28:49.899Z,11.65
2018-12-25T18:31:18.058Z,11.81
2018-12-25T18:33:44.149Z,11.66
2018-12-25T18:36:10.206Z,11.77
2018-12-25T18:38:36.545Z,12.06
2018-12-25T18:41:02.642Z,11.93
2018-12-25T18:43:28.817Z,11.74
2018-12-25T18:45:56.152Z,11.90
2018-12-25T18:48:22.229Z,11.82
2018-12-25T18:50:48.268Z,11.67
2018-12-25T18:53:14.638Z,11.70
2018-12-25T18:55:40.720Z,11.77
2018-12-25T18:58:06.883Z,11.95
2018-12-25T19:00:34.525Z,11.73
2018-12-25T19:03:00.641Z,11.97
2018-12-25T19:05:26.710Z,11.87
2018-12-25T19:07:52.857Z,11.74
2018-12-25T19:10:19.186Z,11.68
2018-12-25T19:12:45.422Z,11.62
2018-12-25T19:15:11.502Z,11.47
2018-12-25T19:17:37.598Z,11.83
2018-12-25T19:20:03.970Z,12.08
2018-12-25T19:22:30.760Z,11.99
2018-12-25T19:24:56.974Z,11.92
2018-12-25T19:27:22.982Z,11.91
2018-12-25T19:29:49.113Z,12.08
2018-12-25T19:32:15.465Z,11.95
2018-12-25T19:34:41.823Z,11.94
2018-12-25T19:37:08.173Z,11.87
2018-12-25T19:39:34.202Z,11.61
2018-12-25T19:42:02.697Z,11.48
2018-12-25T19:44:29.190Z,11.39
2018-12-25T19:46:55.685Z,11.35
2018-12-25T19:49:21.795Z,11.54
2018-12-25T19:51:48.319Z,11.58
2018-12-25T19:54:14.611Z,11.58
2018-12-25T19:56:41.190Z,11.65
2018-12-25T19:59:07.542Z,11.68
2018-12-25T20:01:33.818Z,11.36
2018-12-25T20:03:59.888Z,11.46
2018-12-25T20:06:26.303Z,11.51
2018-12-25T20:08:54.041Z,11.45
2018-12-25T20:11:23.134Z,11.68
2018-12-25T20:13:49.261Z,11.67
2018-12-25T20:16:15.794Z,11.66
2018-12-25T20:18:44.244Z,11.83
2018-12-25T20:21:10.556Z,11.79
2018-12-25T20:23:36.926Z,11.68
2018-12-25T20:26:04.133Z,11.60
2018-12-25T20:28:30.554Z,11.39
2018-12-25T20:30:56.912Z,11.50
2018-12-25T20:33:22.978Z,11.54
2018-12-25T20:35:49.064Z,11.53
2018-12-25T20:38:15.485Z,11.49
2018-12-25T20:40:41.842Z,11.44
2018-12-25T20:43:08.332Z,11.37
2018-12-25T20:45:34.409Z,11.49
2018-12-25T20:48:00.809Z,11.45
2018-12-25T20:50:27.191Z,11.47
2018-12-25T20:52:53.227Z,11.44
2018-12-25T20:55:19.337Z,11.46
2018-12-25T20:57:45.417Z,11.40
2018-12-25T21:00:12.394Z,11.41
2018-12-25T21:02:38.694Z,11.48
2018-12-25T21:05:04.819Z,11.54
2018-12-25T21:07:31.141Z,11.46
2018-12-25T21:09:57.247Z,11.48
2018-12-25T21:12:23.601Z,11.50
2018-12-25T21:14:49.693Z,11.58
2018-12-25T21:17:15.846Z,11.44
2018-12-25T21:19:41.977Z,11.43
2018-12-25T21:22:08.402Z,11.47
2018-12-25T21:24:34.776Z,11.40
2018-12-25T21:27:00.777Z,11.45
2018-12-25T21:29:26.854Z,11.53
2018-12-25T21:31:53.228Z,11.62
2018-12-25T21:34:19.282Z,11.58
2018-12-25T21:36:45.400Z,11.66
2018-12-25T21:39:11.907Z,11.57
2018-12-25T21:41:38.318Z,11.59
2018-12-25T21:44:04.441Z,11.46
2018-12-25T21:46:30.876Z,11.52
2018-12-25T21:48:57.230Z,11.54
2018-12-25T21:51:23.369Z,11.50
2018-12-25T21:53:49.476Z,11.54
2018-12-25T21:56:15.585Z,11.43
2018-12-25T21:58:41.685Z,11.47
2018-12-25T22:01:07.847Z,11.44
2018-12-25T22:03:34.154Z,11.37
2018-12-25T22:06:00.537Z,11.40
2018-12-25T22:08:26.598Z,11.35
2018-12-25T22:10:52.726Z,11.43
2018-12-25T22:13:19.245Z,11.48
2018-12-25T22:15:45.699Z,11.53
2018-12-25T22:18:11.834Z,11.52
2018-12-25T22:20:38.408Z,11.59
2018-12-25T22:23:04.499Z,11.51
2018-12-25T22:25:31.036Z,11.32
2018-12-25T22:27:57.401Z,11.46
2018-12-25T22:30:23.505Z,11.49
2018-12-25T22:32:49.592Z,11.48
2018-12-25T22:35:15.754Z,11.47
2018-12-25T22:37:42.114Z,11.66
2018-12-25T22:40:08.140Z,11.68
2018-12-25T22:42:34.268Z,11.52
2018-12-25T22:45:00.342Z,11.52
2018-12-25T22:47:26.452Z,11.67
2018-12-25T22:49:54.685Z,11.50
2018-12-25T22:52:20.725Z,11.54
2018-12-25T22:54:47.070Z,11.45
2018-12-25T22:57:13.477Z,11.44
2018-12-25T22:59:39.764Z,11.53
2018-12-25T23:02:05.940Z,11.61
2018-12-25T23:04:32.033Z,11.53
2018-12-25T23:06:58.222Z,11.56
2018-12-25T23:09:24.734Z,11.63
2018-12-25T23:11:51.154Z,11.42
2018-12-25T23:14:17.245Z,11.64
2018-12-25T23:16:43.369Z,11.69
2018-12-25T23:19:09.442Z,11.44
2018-12-25T23:21:35.484Z,11.51
2018-12-25T23:24:01.585Z,11.65
2018-12-25T23:26:27.664Z,11.49
2018-12-25T23:28:53.813Z,11.47
2018-12-25T23:31:20.203Z,11.73
2018-12-25T23:33:46.283Z,11.69
2018-12-25T23:36:14.285Z,11.63
2018-12-25T23:38:40.252Z,11.57
2018-12-25T23:41:06.356Z,11.66
2018-12-25T23:43:32.553Z,11.62
2018-12-25T23:45:58.600Z,11.56
2018-12-25T23:48:24.717Z,11.50
2018-12-25T23:50:50.723Z,11.65
2018-12-25T23:53:16.784Z,11.58
2018-12-25T23:55:42.790Z,11.63
2018-12-25T23:58:09.102Z,11.70
